aviador You're here:

KRBG Decoded Metar

ROSEBURG in OR, USA
Report Time2018-02-22 07:53:00
UTC Time2018-02-22 08:34:44
Flight Rules vfr VFR
Wind160° at 05 kt
W.Decomp.*RWY 16: 4.8 kt HW 1.5 kt LCW
W.Rank160° ranks 9
Current wind is above 160° avg. (4.7)
Visibility9999 m
Phenomena:N/A
Clouds:Scattered 070 Hf
Overcast 095 Hf
Expected CloudBase > 1,200 ft AGL from Temp-Dew spread
Ceiling9,500 ft
Temp02°C (ISA -12)
Dew Point-1°C (81% RH)
AAT-1.9°C
QNH1022 hPa
Density Alt-1,178 ft
Elevation505 ft
Report Wrong Elevation
Raw Report
METAR KRBG 220753Z AUTO 16005KT 10SM SCT070 OVC095 02/M01 A3018 RMK
AO2 SLP224 T00171011 400720006=

Extra information for KRBG:More info

Metar Taf Metar & Taf Last 4 Metars F.Rules Stats Wind Profile Meteogram Temp Stats Airport Information Weather charts Add Link Nearby VenuesMetar ALERT Operation Metar Decoded Social comments

AIRNAV info for KRBG